createdAt,value
2018-08-22T00:00:20.615Z,99.90
2018-08-22T00:02:48.719Z,99.90
2018-08-22T00:05:16.300Z,99.90
2018-08-22T00:07:43.876Z,99.90
2018-08-22T00:10:11.644Z,99.90
2018-08-22T00:12:39.723Z,99.90
2018-08-22T00:15:07.420Z,99.90
2018-08-22T00:17:35.007Z,99.90
2018-08-22T00:20:02.625Z,99.90
2018-08-22T00:22:30.579Z,99.90
2018-08-22T00:24:58.163Z,99.90
2018-08-22T00:27:25.761Z,99.90
2018-08-22T00:29:53.780Z,99.90
2018-08-22T00:32:21.442Z,99.90
2018-08-22T00:34:49.503Z,99.90
2018-08-22T00:37:17.236Z,99.90
2018-08-22T00:39:45.364Z,99.90
2018-08-22T00:42:13.143Z,99.90
2018-08-22T00:44:56.489Z,99.90
2018-08-22T00:47:24.179Z,99.90
2018-08-22T00:49:52.396Z,99.90
2018-08-22T00:52:20.077Z,99.90
2018-08-22T00:54:47.749Z,99.90
2018-08-22T00:57:15.335Z,99.90
2018-08-22T00:59:45.495Z,99.90
2018-08-22T01:02:17.378Z,99.90
2018-08-22T01:04:45.329Z,99.90
2018-08-22T01:07:12.970Z,99.90
2018-08-22T01:09:40.924Z,99.90
2018-08-22T01:12:08.615Z,99.90
2018-08-22T01:14:37.520Z,99.90
2018-08-22T01:17:05.835Z,99.90
2018-08-22T01:19:36.011Z,99.90
2018-08-22T01:22:03.943Z,99.90
2018-08-22T01:24:31.649Z,99.90
2018-08-22T01:26:59.268Z,99.90
2018-08-22T01:29:27.363Z,99.90
2018-08-22T01:31:54.962Z,99.90
2018-08-22T01:34:22.602Z,99.90
2018-08-22T01:36:50.260Z,99.90
2018-08-22T01:39:17.852Z,99.90
2018-08-22T01:41:45.466Z,99.90
2018-08-22T01:44:14.527Z,99.90
2018-08-22T01:46:42.213Z,99.90
2018-08-22T01:49:09.903Z,99.90
2018-08-22T01:51:37.582Z,99.90
2018-08-22T01:54:08.084Z,99.90
2018-08-22T01:56:35.936Z,99.90
2018-08-22T01:59:04.194Z,99.90
2018-08-22T02:02:34.484Z,99.90
2018-08-22T02:05:02.137Z,99.90
2018-08-22T02:07:29.772Z,99.90
2018-08-22T02:09:58.063Z,99.90
2018-08-22T02:12:27.035Z,99.90
2018-08-22T02:14:54.765Z,99.90
2018-08-22T02:17:22.796Z,99.90
2018-08-22T02:19:50.552Z,99.90
2018-08-22T02:22:18.916Z,99.90
2018-08-22T02:24:50.642Z,99.90
2018-08-22T02:27:18.889Z,99.90
2018-08-22T02:29:46.672Z,99.90
2018-08-22T02:32:14.323Z,99.90
2018-08-22T02:34:41.941Z,99.90
2018-08-22T02:37:09.784Z,99.90
2018-08-22T02:39:37.736Z,99.90
2018-08-22T02:42:05.856Z,99.90
2018-08-22T02:44:33.652Z,99.90
2018-08-22T02:47:01.443Z,99.90
2018-08-22T02:49:29.255Z,99.90
2018-08-22T02:51:58.508Z,99.90
2018-08-22T02:54:26.638Z,99.90
2018-08-22T02:56:54.500Z,99.90
2018-08-22T02:59:24.267Z,99.90
2018-08-22T03:01:52.016Z,99.90
2018-08-22T03:04:19.849Z,99.90
2018-08-22T03:06:47.765Z,99.90
2018-08-22T03:09:15.873Z,99.90
2018-08-22T03:11:43.696Z,99.90
2018-08-22T03:14:11.431Z,99.90
2018-08-22T03:16:39.310Z,99.90
2018-08-22T03:19:07.529Z,99.90
2018-08-22T03:21:35.912Z,99.90
2018-08-22T03:24:03.648Z,99.90
2018-08-22T03:26:31.474Z,99.90
2018-08-22T03:28:59.643Z,99.90
2018-08-22T03:31:27.424Z,99.90
2018-08-22T03:33:55.227Z,99.90
2018-08-22T03:36:23.014Z,99.90
2018-08-22T03:39:07.182Z,99.90
2018-08-22T03:41:37.601Z,99.90
2018-08-22T03:44:11.287Z,99.90
2018-08-22T03:46:39.444Z,99.90
2018-08-22T03:49:07.311Z,99.90
2018-08-22T03:51:35.410Z,99.90
2018-08-22T03:54:03.248Z,99.90
2018-08-22T03:56:32.656Z,99.90
2018-08-22T03:59:00.412Z,99.90
2018-08-22T04:01:28.456Z,99.90
2018-08-22T04:03:56.276Z,99.90
2018-08-22T04:06:23.960Z,99.90
2018-08-22T04:08:52.141Z,99.90
2018-08-22T04:11:19.922Z,99.90
2018-08-22T04:13:47.778Z,99.90
2018-08-22T04:16:16.245Z,99.90
2018-08-22T04:18:44.028Z,99.90
2018-08-22T04:21:11.758Z,99.90
2018-08-22T04:23:40.310Z,99.90
2018-08-22T04:26:08.249Z,99.90
2018-08-22T04:28:35.993Z,99.90
2018-08-22T04:31:04.234Z,99.90
2018-08-22T04:33:31.923Z,99.90
2018-08-22T04:35:59.619Z,99.90
2018-08-22T04:38:28.185Z,99.90
2018-08-22T04:41:04.522Z,99.90
2018-08-22T04:43:32.537Z,99.90
2018-08-22T04:46:01.660Z,99.90
2018-08-22T04:48:29.637Z,99.90
2018-08-22T04:51:00.557Z,99.90
2018-08-22T04:53:30.711Z,99.90
2018-08-22T04:55:58.574Z,99.90
2018-08-22T04:58:26.341Z,99.90
2018-08-22T05:00:56.520Z,99.90
2018-08-22T05:03:24.210Z,99.90
2018-08-22T05:05:53.959Z,99.90
2018-08-22T05:08:22.976Z,99.90
2018-08-22T05:10:51.095Z,99.90
2018-08-22T05:13:26.847Z,99.90
2018-08-22T05:15:54.979Z,99.90
2018-08-22T05:18:22.664Z,99.90
2018-08-22T05:20:50.361Z,99.90
2018-08-22T05:23:20.113Z,99.90
2018-08-22T05:25:47.856Z,99.90
2018-08-22T05:28:16.658Z,99.90
2018-08-22T05:30:44.749Z,99.90
2018-08-22T05:33:16.465Z,99.90
2018-08-22T05:35:49.169Z,99.90
2018-08-22T05:38:17.461Z,99.90
2018-08-22T05:40:45.308Z,99.90
2018-08-22T05:43:15.138Z,99.90
2018-08-22T05:45:43.201Z,99.90
2018-08-22T05:48:11.008Z,99.90
2018-08-22T05:50:38.699Z,99.90
2018-08-22T05:53:06.996Z,99.90
2018-08-22T05:55:34.741Z,99.90
2018-08-22T05:58:03.594Z,99.90
2018-08-22T06:00:31.960Z,99.90
2018-08-22T06:02:59.738Z,99.90
2018-08-22T06:05:27.423Z,99.90
2018-08-22T06:07:56.537Z,99.90
2018-08-22T06:10:24.260Z,99.90
2018-08-22T06:13:40.104Z,99.90
2018-08-22T06:16:07.885Z,99.90
2018-08-22T06:18:49.409Z,99.90
2018-08-22T06:21:17.471Z,99.90
2018-08-22T06:23:45.367Z,99.90
2018-08-22T06:26:13.069Z,99.90
2018-08-22T06:28:41.242Z,99.90
2018-08-22T06:31:09.028Z,99.90
2018-08-22T06:33:39.966Z,99.90
2018-08-22T06:36:07.952Z,99.90
2018-08-22T06:38:35.634Z,99.90
2018-08-22T06:41:03.490Z,99.90
2018-08-22T06:43:36.352Z,99.90
2018-08-22T06:46:10.297Z,99.90
2018-08-22T06:48:38.479Z,99.90
2018-08-22T06:51:07.159Z,99.90
2018-08-22T06:53:34.849Z,99.90
2018-08-22T06:56:02.568Z,99.20
2018-08-22T06:58:30.638Z,99.90
2018-08-22T07:00:59.183Z,99.90
2018-08-22T07:03:26.975Z,99.90
2018-08-22T07:05:55.069Z,99.20
2018-08-22T07:08:35.838Z,98.50
2018-08-22T07:11:04.047Z,98.60
2018-08-22T07:13:31.751Z,97.10
2018-08-22T07:15:59.437Z,97.40
2018-08-22T07:18:27.717Z,96.20
2018-08-22T07:20:55.688Z,96.10
2018-08-22T07:23:23.436Z,95.60
2018-08-22T07:25:51.462Z,95.10
2018-08-22T07:28:34.521Z,95.00
2018-08-22T07:31:02.806Z,94.20
2018-08-22T07:33:30.891Z,95.60
2018-08-22T07:52:53.708Z,94.00
2018-08-22T07:55:23.250Z,93.10
2018-08-22T07:57:53.190Z,93.20
2018-08-22T08:00:21.983Z,93.50
2018-08-22T08:02:52.921Z,93.10
2018-08-22T08:05:28.465Z,93.10
2018-08-22T08:07:59.225Z,92.90
2018-08-22T08:10:36.525Z,93.00
2018-08-22T08:16:08.529Z,92.80
2018-08-22T08:18:39.074Z,91.70
2018-08-22T08:21:08.853Z,94.20
2018-08-22T08:23:37.606Z,92.40
2018-08-22T08:26:08.845Z,90.70
2018-08-22T08:28:39.662Z,87.80
2018-08-22T08:31:08.492Z,88.40
2018-08-22T08:33:37.285Z,90.60
2018-08-22T08:36:06.799Z,93.40
2018-08-22T08:38:35.508Z,96.30
2018-08-22T08:41:05.157Z,93.40
2018-08-22T08:43:34.342Z,94.00
2018-08-22T08:46:05.364Z,96.10
2018-08-22T08:48:33.835Z,95.90
2018-08-22T08:51:02.547Z,96.30
2018-08-22T08:53:31.231Z,95.10
2018-08-22T08:55:59.723Z,94.80
2018-08-22T08:58:29.824Z,94.00
2018-08-22T09:00:58.165Z,95.40
2018-08-22T09:03:27.560Z,96.60
2018-08-22T09:05:56.205Z,97.60
2018-08-22T09:08:24.574Z,96.70
2018-08-22T09:10:52.986Z,97.60
2018-08-22T09:13:22.085Z,97.40
2018-08-22T09:15:50.316Z,96.80
2018-08-22T09:18:43.307Z,99.10
2018-08-22T09:21:12.964Z,95.90
2018-08-22T09:23:41.130Z,94.40
2018-08-22T09:26:11.234Z,95.50
2018-08-22T09:28:49.162Z,94.10
2018-08-22T09:31:18.083Z,95.20
2018-08-22T09:33:47.055Z,97.80
2018-08-22T09:36:15.717Z,95.80
2018-08-22T09:38:46.795Z,92.80
2018-08-22T09:41:15.772Z,92.50
2018-08-22T09:43:44.901Z,92.50
2018-08-22T09:46:13.348Z,92.60
2018-08-22T09:48:47.524Z,93.10
2018-08-22T09:51:17.028Z,94.10
2018-08-22T09:53:45.997Z,94.90
2018-08-22T09:56:15.375Z,93.60
2018-08-22T09:58:44.226Z,95.20
2018-08-22T10:01:17.886Z,93.70
2018-08-22T10:03:53.137Z,93.60
2018-08-22T10:06:33.749Z,93.70
2018-08-22T10:09:03.470Z,94.30
2018-08-22T10:11:31.629Z,95.60
2018-08-22T10:14:00.405Z,96.00
2018-08-22T10:16:30.437Z,96.30
2018-08-22T10:19:02.028Z,97.00
2018-08-22T10:21:32.298Z,95.30
2018-08-22T10:24:02.914Z,94.50
2018-08-22T10:26:31.323Z,93.90
2018-08-22T10:29:01.307Z,94.00
2018-08-22T10:31:29.886Z,93.30
2018-08-22T10:33:58.075Z,93.50
2018-08-22T10:36:34.422Z,92.70
2018-08-22T10:39:07.665Z,92.30
2018-08-22T10:47:13.886Z,92.70
2018-08-22T10:49:42.343Z,91.90
2018-08-22T10:52:12.126Z,92.50
2018-08-22T10:54:42.423Z,93.00
2018-08-22T10:57:15.073Z,91.80
2018-08-22T10:59:43.782Z,91.50
2018-08-22T11:02:14.181Z,92.20
2018-08-22T11:04:42.403Z,93.20
2018-08-22T11:07:11.036Z,93.30
2018-08-22T11:09:39.888Z,93.90
2018-08-22T11:12:08.122Z,94.20
2018-08-22T11:14:37.130Z,94.80
2018-08-22T11:17:06.149Z,94.90
2018-08-22T11:19:34.682Z,94.80
2018-08-22T11:22:08.421Z,94.80
2018-08-22T11:24:42.639Z,93.90
2018-08-22T11:27:16.592Z,94.60
2018-08-22T11:29:51.810Z,95.60
2018-08-22T11:32:34.127Z,94.20
2018-08-22T11:37:43.663Z,94.80
2018-08-22T11:40:13.698Z,94.10
2018-08-22T11:42:43.342Z,93.90
2018-08-22T11:45:11.978Z,94.30
2018-08-22T11:47:41.542Z,94.10
2018-08-22T11:50:11.552Z,94.60
2018-08-22T11:52:40.381Z,94.60
2018-08-22T11:55:09.101Z,94.30
2018-08-22T11:57:37.616Z,95.40
2018-08-22T12:00:06.797Z,94.10
2018-08-22T12:02:36.876Z,92.90
2018-08-22T12:05:06.439Z,93.80
2018-08-22T12:07:34.717Z,93.60
2018-08-22T12:10:05.877Z,93.80
2018-08-22T12:12:36.488Z,93.80
2018-08-22T12:15:04.902Z,94.50
2018-08-22T12:17:33.804Z,94.40
2018-08-22T12:20:03.357Z,94.30
2018-08-22T12:22:44.520Z,94.50
2018-08-22T12:25:16.816Z,94.60
2018-08-22T12:27:46.213Z,94.20
2018-08-22T12:30:16.284Z,95.80
2018-08-22T12:32:48.469Z,94.70
2018-08-22T12:35:23.428Z,94.10
2018-08-22T12:37:51.876Z,94.60
2018-08-22T12:40:37.002Z,94.90
2018-08-22T12:43:08.638Z,94.80
2018-08-22T12:45:40.373Z,95.60
2018-08-22T12:48:09.141Z,95.00
2018-08-22T12:50:42.995Z,95.30
2018-08-22T12:53:11.339Z,95.70
2018-08-22T12:55:40.258Z,96.80
2018-08-22T12:58:09.171Z,95.20
2018-08-22T13:00:38.192Z,94.80
2018-08-22T13:03:32.354Z,95.60
2018-08-22T13:06:01.692Z,95.10
2018-08-22T13:08:30.505Z,95.20
2018-08-22T13:10:59.101Z,95.00
2018-08-22T13:13:27.616Z,94.50
2018-08-22T13:15:57.274Z,94.50
2018-08-22T13:18:29.493Z,94.30
2018-08-22T13:20:58.180Z,94.00
2018-08-22T13:23:26.741Z,94.50
2018-08-22T13:25:56.130Z,94.00
2018-08-22T13:28:25.621Z,94.40
2018-08-22T13:30:55.046Z,94.40
2018-08-22T13:33:24.685Z,94.20
2018-08-22T13:35:53.859Z,94.10
2018-08-22T13:38:22.937Z,93.70
2018-08-22T13:40:53.483Z,94.40
2018-08-22T13:43:22.991Z,93.80
2018-08-22T13:45:52.012Z,93.90
2018-08-22T13:48:21.325Z,93.20
2018-08-22T13:50:50.937Z,94.40
2018-08-22T13:53:21.802Z,93.80
2018-08-22T13:55:50.334Z,94.20
2018-08-22T13:58:18.966Z,93.50
2018-08-22T14:00:50.007Z,94.20
2018-08-22T14:03:19.073Z,93.80
2018-08-22T14:05:47.905Z,94.10
2018-08-22T14:08:17.029Z,94.30
2018-08-22T14:10:45.535Z,93.70
2018-08-22T14:13:14.997Z,93.50
2018-08-22T14:15:44.556Z,94.30
2018-08-22T14:18:14.308Z,94.00
2018-08-22T14:23:50.640Z,93.40
2018-08-22T14:26:21.260Z,93.60
2018-08-22T14:28:53.764Z,94.00
2018-08-22T14:31:22.461Z,93.20
2018-08-22T14:33:57.119Z,93.60
2018-08-22T14:36:27.891Z,94.10
2018-08-22T14:44:16.925Z,93.60
2018-08-22T14:46:46.051Z,93.70
2018-08-22T14:49:15.649Z,93.30
2018-08-22T14:51:54.662Z,93.20
2018-08-22T14:54:24.699Z,93.60
2018-08-22T14:57:06.317Z,94.40
2018-08-22T15:02:55.289Z,94.10
2018-08-22T15:05:26.462Z,93.20
2018-08-22T15:07:55.323Z,94.10
2018-08-22T15:10:23.814Z,93.70
2018-08-22T15:13:05.073Z,94.10
2018-08-22T15:15:53.451Z,93.20
2018-08-22T15:18:26.213Z,94.00
2018-08-22T15:20:55.183Z,95.70
2018-08-22T15:23:24.691Z,92.50
2018-08-22T15:25:53.462Z,92.50
2018-08-22T15:28:22.764Z,92.70
2018-08-22T15:30:51.185Z,93.00
2018-08-22T15:33:20.191Z,92.80
2018-08-22T15:35:49.781Z,93.10
2018-08-22T15:38:20.853Z,93.80
2018-08-22T15:40:49.986Z,93.00
2018-08-22T15:43:20.037Z,93.20
2018-08-22T15:46:00.312Z,93.60
2018-08-22T15:48:29.353Z,93.60
2018-08-22T15:51:17.770Z,93.00
2018-08-22T15:53:51.930Z,93.40
2018-08-22T15:56:20.377Z,93.70
2018-08-22T15:58:49.133Z,93.40
2018-08-22T16:01:23.024Z,94.00
2018-08-22T16:04:17.218Z,94.10
2018-08-22T16:07:04.125Z,93.80
2018-08-22T16:09:33.282Z,94.10
2018-08-22T16:12:04.621Z,93.90
2018-08-22T16:17:25.937Z,93.80
2018-08-22T16:19:59.472Z,93.90
2018-08-22T16:22:27.946Z,94.90
2018-08-22T16:24:58.459Z,94.40
2018-08-22T16:27:45.078Z,94.90
2018-08-22T16:30:15.788Z,94.60
2018-08-22T16:35:51.777Z,94.90
2018-08-22T16:38:24.920Z,95.10
2018-08-22T16:40:54.034Z,95.50
2018-08-22T16:43:38.320Z,95.90
2018-08-22T16:46:14.241Z,96.60
2018-08-22T16:48:44.285Z,98.70
2018-08-22T16:51:13.174Z,98.00
2018-08-22T16:53:41.634Z,97.70
2018-08-22T16:56:14.374Z,97.30
2018-08-22T16:58:43.629Z,97.30
2018-08-22T17:01:15.442Z,98.40
2018-08-22T17:03:44.266Z,99.90
2018-08-22T17:06:17.014Z,99.90
2018-08-22T17:08:49.754Z,99.90
2018-08-22T17:11:18.302Z,99.90
2018-08-22T17:13:47.922Z,98.90
2018-08-22T17:16:23.855Z,99.40
2018-08-22T17:18:52.737Z,99.60
2018-08-22T17:21:25.607Z,99.90
2018-08-22T17:23:54.464Z,99.90
2018-08-22T17:26:23.902Z,99.90
2018-08-22T17:28:54.733Z,99.90
2018-08-22T17:31:28.247Z,99.90
2018-08-22T17:34:00.167Z,99.90
2018-08-22T17:36:29.556Z,99.90
2018-08-22T17:38:59.414Z,99.90
2018-08-22T17:41:29.967Z,99.90
2018-08-22T17:44:19.683Z,99.90
2018-08-22T17:46:50.632Z,99.90
2018-08-22T17:49:19.881Z,99.90
2018-08-22T17:52:12.322Z,99.90
2018-08-22T17:54:41.362Z,99.90
2018-08-22T17:57:17.661Z,99.90
2018-08-22T17:59:46.505Z,99.90
2018-08-22T18:02:17.837Z,99.90
2018-08-22T18:04:52.395Z,99.90
2018-08-22T18:07:25.827Z,99.90
2018-08-22T18:13:09.491Z,99.90
2018-08-22T18:15:39.291Z,99.90
2018-08-22T18:18:11.854Z,99.90
2018-08-22T18:20:47.785Z,99.90
2018-08-22T18:23:17.733Z,99.90
2018-08-22T18:25:56.485Z,99.90
2018-08-22T18:28:25.180Z,99.90
2018-08-22T18:30:55.474Z,99.90
2018-08-22T18:33:26.489Z,99.90
2018-08-22T18:36:05.147Z,99.90
2018-08-22T18:38:33.930Z,99.90
2018-08-22T18:41:06.300Z,99.90
2018-08-22T18:43:38.127Z,99.90
2018-08-22T18:46:11.415Z,99.90
2018-08-22T18:48:41.104Z,99.90
2018-08-22T18:51:12.400Z,99.90
2018-08-22T18:53:45.226Z,99.90
2018-08-22T18:56:18.067Z,99.90
2018-08-22T18:58:46.674Z,99.90
2018-08-22T19:01:15.169Z,99.90
2018-08-22T19:03:44.972Z,99.90
2018-08-22T19:06:21.891Z,99.90
2018-08-22T19:09:00.167Z,99.90
2018-08-22T19:11:29.011Z,99.90
2018-08-22T19:13:57.879Z,99.90
2018-08-22T19:16:26.646Z,99.90
2018-08-22T19:18:56.006Z,99.90
2018-08-22T19:21:25.401Z,99.90
2018-08-22T19:24:05.535Z,99.90
2018-08-22T19:26:35.362Z,99.90
2018-08-22T19:29:05.153Z,99.90
2018-08-22T19:31:33.569Z,99.90
2018-08-22T19:34:03.306Z,99.90
2018-08-22T19:36:32.598Z,99.90
2018-08-22T19:39:01.782Z,99.90
2018-08-22T19:41:33.255Z,99.90
2018-08-22T19:44:02.119Z,99.90
2018-08-22T19:46:32.972Z,99.90
2018-08-22T19:49:03.164Z,99.90
2018-08-22T19:51:32.454Z,99.90
2018-08-22T19:54:08.625Z,99.90
2018-08-22T19:56:38.845Z,99.90
2018-08-22T19:59:09.089Z,99.90
2018-08-22T20:01:38.745Z,99.90
2018-08-22T20:04:08.772Z,99.90
2018-08-22T20:06:37.600Z,99.90
2018-08-22T20:09:06.288Z,99.90
2018-08-22T20:11:35.481Z,99.90
2018-08-22T20:14:07.295Z,99.90
2018-08-22T20:16:35.579Z,99.90
2018-08-22T20:19:05.388Z,99.90
2018-08-22T20:21:37.098Z,99.90
2018-08-22T20:24:07.393Z,99.90
2018-08-22T20:26:36.672Z,99.90
2018-08-22T20:29:05.963Z,99.90
2018-08-22T20:31:35.444Z,99.90
2018-08-22T20:34:14.006Z,99.90
2018-08-22T20:36:43.947Z,99.90
2018-08-22T20:39:13.117Z,99.90
2018-08-22T20:41:42.203Z,99.90
2018-08-22T20:44:20.676Z,99.90
2018-08-22T20:46:49.808Z,99.90
2018-08-22T20:49:19.429Z,99.90
2018-08-22T20:51:47.962Z,99.90
2018-08-22T20:54:20.093Z,99.90
2018-08-22T20:56:53.593Z,99.90
2018-08-22T20:59:22.046Z,99.90
2018-08-22T21:01:55.259Z,99.90
2018-08-22T21:04:23.661Z,99.90
2018-08-22T21:06:51.904Z,99.90
2018-08-22T21:09:20.329Z,99.90
2018-08-22T21:11:48.558Z,99.90
2018-08-22T21:14:17.052Z,99.90
2018-08-22T21:16:45.899Z,99.90
2018-08-22T21:19:14.106Z,99.90
2018-08-22T21:21:42.536Z,99.90
2018-08-22T21:24:11.079Z,99.90
2018-08-22T21:26:41.131Z,99.90
2018-08-22T21:29:09.374Z,99.90
2018-08-22T21:31:37.803Z,99.90
2018-08-22T21:34:12.614Z,99.90
2018-08-22T21:36:42.052Z,99.90
2018-08-22T21:39:16.075Z,99.90
2018-08-22T21:41:45.811Z,99.90
2018-08-22T21:44:20.367Z,99.90
2018-08-22T21:46:55.398Z,99.90
2018-08-22T21:49:23.947Z,99.90
2018-08-22T21:51:52.113Z,99.90
2018-08-22T21:54:21.011Z,99.90
2018-08-22T21:56:49.583Z,99.90
2018-08-22T21:59:18.171Z,99.90
2018-08-22T22:01:51.966Z,99.90
2018-08-22T22:04:25.449Z,99.90
2018-08-22T22:06:54.065Z,99.90
2018-08-22T22:09:22.258Z,99.90
2018-08-22T22:11:55.196Z,99.90
2018-08-22T22:14:27.527Z,99.90
2018-08-22T22:16:57.573Z,99.90
2018-08-22T22:19:26.687Z,99.90
2018-08-22T22:21:54.874Z,99.90
2018-08-22T22:24:23.175Z,99.90
2018-08-22T22:26:51.950Z,99.90
2018-08-22T22:29:20.329Z,99.90
2018-08-22T22:31:48.529Z,99.90
2018-08-22T22:34:17.066Z,99.90
2018-08-22T22:36:45.230Z,99.90
2018-08-22T22:39:22.901Z,99.90
2018-08-22T22:41:53.848Z,99.90
2018-08-22T22:44:21.991Z,99.90
2018-08-22T22:46:50.114Z,99.90
2018-08-22T22:49:18.523Z,99.90
2018-08-22T22:51:46.875Z,99.90
2018-08-22T22:54:15.415Z,99.90
2018-08-22T22:56:44.124Z,99.90
2018-08-22T22:59:12.854Z,99.90
2018-08-22T23:01:41.566Z,99.90
2018-08-22T23:04:10.511Z,99.90
2018-08-22T23:06:39.577Z,99.90
2018-08-22T23:09:08.433Z,99.90
2018-08-22T23:11:37.391Z,99.90
2018-08-22T23:14:06.110Z,99.90
2018-08-22T23:16:36.466Z,99.90
2018-08-22T23:19:05.733Z,99.90
2018-08-22T23:21:34.130Z,99.90
2018-08-22T23:24:06.962Z,99.90
2018-08-22T23:26:35.990Z,99.90
2018-08-22T23:29:04.431Z,99.90
2018-08-22T23:31:32.810Z,99.90
2018-08-22T23:34:02.008Z,99.90
2018-08-22T23:36:30.187Z,99.90
2018-08-22T23:38:58.344Z,99.90
2018-08-22T23:41:26.908Z,99.90
2018-08-22T23:43:55.476Z,99.90
2018-08-22T23:46:23.816Z,99.90
2018-08-22T23:48:54.855Z,99.90
2018-08-22T23:51:23.311Z,99.90
2018-08-22T23:53:51.668Z,99.90
2018-08-22T23:56:22.658Z,99.90
2018-08-22T23:58:51.436Z,99.90
